< < Back
Terminal Aerodrome Forecast


Current Version              Previous Versions:   1  2  3  4  5  6  7  8  9  

Terminal Aerodrome Forecast

009
FTUS44 KMRX 291725
TAFTYS
TAF
KTYS 291725Z 2918/3018 VRB05KT P6SM OVC040
     FM292100 34005KT P6SM SCT050
     FM300000 VRB03KT P6SM SCT250
      TEMPO 3008/3012 4SM BR=



Latest METAR

471
SAUS80 KWBC 301500
MTRTYS
METAR KTYS 301453Z 00000KT 10SM CLR 10/06 A3011 RMK AO2 SLP197 T01000056
50001


USA.gov is the U.S. government's official web portal to all federal, state and local government web resources and services.